首页
METAR-TAF:

METAR-TAF

机场 :

成吉思汗國際機場

乌兰巴托, 蒙古国

纬度: 47-55N, 经度: 106-52E, 海拔: 1306米

当前天气观测

该预报发布于31分钟前的12:00 UTC
风速10节,风向西转西北,在西之间变化
温度 15°C
湿度 77%
气压 999 hPa
能见度10公里或以上
散云层高于3000英尺, 积雨云.
散云层高于3300英尺
雷暴

METAR: ZMUB 091200Z 30005MPS 280V350 9999 TS SCT030CB SCT033 15/11 Q0999 R14140095 NOSIG RMK QFE644.0 82 MOP

时间: 20:31 (12:31 UTC)

预报

该预报发布于1小时和32分钟前的10:59 UTC
预报有效从09日的 12点(UTC)到 10日的 18点(UTC)
风速4节,风向多变
能见度10公里或以上
少量云层高于3000英尺, 积雨云.
多云层高于3300英尺
短暂存在
从 09日的 12点(UTC)到 09日的 19点(UTC)
风速16节,风向多变,有时为25节阵风
散云层高于2700英尺, 积雨云.
多云层高于3000英尺
雷暴, 雨
成为
从 09日的 17点(UTC)到 09日的 19点(UTC)
少量云层高于2300英尺
少量云层高于2700英尺, 积雨云.
多云层高于3000英尺
成为
从 10日的 01点(UTC)到 10日的 03点(UTC)
风速12节,风向
少量云层高于2700英尺, 积雨云.
多云层高于3000英尺
短暂存在
从 10日的 02点(UTC)到 10日的 15点(UTC)
风速17节,风向多变,有时为27节阵风
散云层高于2700英尺, 积雨云.
多云层高于3000英尺
雷暴, 雨
成为
从 10日的 10点(UTC)到 10日的 12点(UTC)
风速4节,风向多变

TAF: ZMUB 091059Z 0912/1018 VRB02MPS 9999 FEW030CB BKN033 TN13/0922Z TX19/1007Z TEMPO 0912/0919 VRB08G13MPS TSRA SCT027CB BKN030 BECMG 0917/0919 RA FEW023 FEW027CB BKN030 BECMG 1001/1003 35006MPS FEW027CB BKN030 TEMPO 1002/1015 VRB09G14MPS TSRA SCT027CB BKN030 BECMG 1010/1012 VRB02MPS

超过4000个机场的气象观测和天气预报(METAR&TAF报告)。

可查询的气象台以黄色和红色小点在地图上表示。

将鼠标移到小点上方,可查看气象台名称。

然后点击查看天气观测和预报。

如需切换地图:点击带黑十字的绿色按钮放大地图;点击带横线的绿色按钮缩小地图;或者点击绿色箭头查看邻近地区的地图。


METAR-TAF: